createdAt,value
2022-08-20T00:00:10.638Z,22.00
2022-08-20T00:00:41.210Z,21.30
2022-08-20T00:01:11.769Z,22.70
2022-08-20T00:01:42.387Z,24.50
2022-08-20T00:02:13.036Z,24.30
2022-08-20T00:02:43.607Z,23.00
2022-08-20T00:03:14.184Z,22.70
2022-08-20T00:03:50.194Z,24.20
2022-08-20T00:04:15.534Z,23.40
2022-08-20T00:04:46.109Z,22.20
2022-08-20T00:05:16.689Z,22.50
2022-08-20T00:05:47.298Z,22.90
2022-08-20T00:06:17.863Z,26.00
2022-08-20T00:06:48.421Z,25.30
2022-08-20T00:07:18.993Z,22.90
2022-08-20T00:07:49.598Z,25.30
2022-08-20T00:08:20.155Z,22.20
2022-08-20T00:08:50.753Z,23.70
2022-08-20T00:09:21.318Z,20.90
2022-08-20T00:09:51.898Z,23.20
2022-08-20T00:10:22.468Z,22.80
2022-08-20T00:10:55.589Z,23.20
2022-08-20T00:11:24.068Z,25.10
2022-08-20T00:11:54.604Z,22.00
2022-08-20T00:12:25.175Z,22.00
2022-08-20T00:12:55.739Z,21.30
2022-08-20T00:13:26.308Z,21.20
2022-08-20T00:13:56.894Z,23.50
2022-08-20T00:14:27.429Z,21.20
2022-08-20T00:14:58.224Z,24.10
2022-08-20T00:15:28.796Z,23.00
2022-08-20T00:15:59.369Z,27.20
2022-08-20T00:16:29.968Z,24.10
2022-08-20T00:17:00.529Z,22.50
2022-08-20T00:17:31.115Z,22.00
2022-08-20T00:18:01.659Z,21.90
2022-08-20T00:18:32.224Z,22.60
2022-08-20T00:19:02.824Z,21.10
2022-08-20T00:19:33.399Z,23.50
2022-08-20T00:20:03.955Z,24.10
2022-08-20T00:20:34.520Z,20.70
2022-08-20T00:21:05.067Z,25.20
2022-08-20T00:21:35.630Z,21.50
2022-08-20T00:22:06.237Z,21.10
2022-08-20T00:23:10.302Z,24.10
2022-08-20T00:23:38.612Z,24.30
2022-08-20T00:24:09.188Z,23.80
2022-08-20T00:24:39.756Z,23.50
2022-08-20T00:25:10.330Z,21.50
2022-08-20T00:25:40.902Z,23.10
2022-08-20T00:26:11.428Z,22.40
2022-08-20T00:26:52.364Z,22.20
2022-08-20T00:27:12.729Z,23.10
2022-08-20T00:27:43.295Z,25.20
2022-08-20T00:28:13.868Z,20.60
2022-08-20T00:28:44.459Z,23.50
2022-08-20T00:29:15.029Z,23.50
2022-08-20T00:29:45.754Z,23.70
2022-08-20T00:30:16.327Z,18.90
2022-08-20T00:30:46.920Z,18.90
2022-08-20T00:31:17.498Z,22.70
2022-08-20T00:31:48.044Z,23.40
2022-08-20T00:32:18.613Z,21.60
2022-08-20T00:32:49.150Z,21.60
2022-08-20T00:33:19.760Z,26.10
2022-08-20T00:33:50.345Z,21.50
2022-08-20T00:34:20.911Z,23.00
2022-08-20T00:34:51.500Z,22.50
2022-08-20T00:35:22.074Z,20.20
2022-08-20T00:35:52.652Z,24.10
2022-08-20T00:36:32.562Z,20.90
2022-08-20T00:36:54.014Z,22.30
2022-08-20T00:37:24.579Z,21.80
2022-08-20T00:37:58.684Z,22.00
2022-08-20T00:38:25.923Z,19.60
2022-08-20T00:38:56.478Z,21.10
2022-08-20T00:39:27.047Z,21.10
2022-08-20T00:39:57.672Z,18.80
2022-08-20T00:40:28.236Z,25.00
2022-08-20T00:40:58.813Z,20.30
2022-08-20T00:41:29.382Z,22.00
2022-08-20T00:41:59.962Z,22.10
2022-08-20T00:42:30.497Z,20.90
2022-08-20T00:43:01.064Z,22.90
2022-08-20T00:43:31.592Z,20.80
2022-08-20T00:44:02.166Z,23.80
2022-08-20T00:44:33.045Z,22.50
2022-08-20T00:45:03.608Z,19.10
2022-08-20T00:45:34.184Z,22.20
2022-08-20T00:46:04.711Z,25.20
2022-08-20T00:46:35.282Z,23.70
2022-08-20T00:47:05.833Z,21.40
2022-08-20T00:47:36.404Z,21.80
2022-08-20T00:48:06.984Z,24.80
2022-08-20T00:48:37.558Z,22.30
2022-08-20T00:49:08.138Z,22.00
2022-08-20T00:49:38.710Z,22.50
2022-08-20T00:50:09.243Z,23.80
2022-08-20T00:50:39.811Z,21.30
2022-08-20T00:51:10.396Z,23.90
2022-08-20T00:51:40.953Z,23.30
2022-08-20T00:52:11.527Z,25.10
2022-08-20T00:52:42.069Z,20.40
2022-08-20T00:53:12.843Z,20.60
2022-08-20T00:53:43.410Z,23.20
2022-08-20T00:54:13.988Z,22.90
2022-08-20T00:54:44.522Z,23.10
2022-08-20T00:55:15.103Z,21.60
2022-08-20T00:55:45.662Z,21.70
2022-08-20T00:56:16.243Z,23.30
2022-08-20T00:56:46.821Z,22.40
2022-08-20T00:57:17.383Z,21.30
2022-08-20T00:58:00.439Z,25.10
2022-08-20T00:58:18.708Z,22.70
2022-08-20T00:58:49.282Z,20.80
2022-08-20T00:59:19.808Z,21.90
2022-08-20T00:59:50.374Z,24.00
2022-08-20T01:00:20.933Z,21.20
2022-08-20T01:00:51.889Z,21.50
2022-08-20T01:01:22.479Z,21.60
2022-08-20T01:01:56.185Z,20.70
2022-08-20T01:02:23.832Z,22.00
2022-08-20T01:02:54.413Z,18.80
2022-08-20T01:03:24.976Z,21.60
2022-08-20T01:03:55.540Z,22.80
2022-08-20T01:04:26.091Z,22.60
2022-08-20T01:04:56.624Z,23.10
2022-08-20T01:05:29.426Z,20.60
2022-08-20T01:05:58.182Z,25.10
2022-08-20T01:06:28.749Z,20.50
2022-08-20T01:06:59.298Z,21.90
2022-08-20T01:07:29.874Z,18.60
2022-08-20T01:08:00.449Z,26.50
2022-08-20T01:08:31.014Z,21.80
2022-08-20T01:09:01.565Z,23.20
2022-08-20T01:09:49.820Z,20.50
2022-08-20T01:10:02.910Z,23.20
2022-08-20T01:10:33.484Z,21.10
2022-08-20T01:11:04.028Z,23.60
2022-08-20T01:11:36.982Z,20.90
2022-08-20T01:12:05.411Z,20.80
2022-08-20T01:12:35.958Z,21.70
2022-08-20T01:13:06.522Z,19.80
2022-08-20T01:13:37.098Z,20.90
2022-08-20T01:14:07.642Z,25.70
2022-08-20T01:14:38.176Z,23.20
2022-08-20T01:15:08.707Z,20.20
2022-08-20T01:15:43.010Z,21.50
2022-08-20T01:16:09.891Z,22.70
2022-08-20T01:16:40.672Z,22.10
2022-08-20T01:17:12.803Z,23.50
2022-08-20T01:17:42.315Z,21.10
2022-08-20T01:18:12.862Z,22.60
2022-08-20T01:18:43.400Z,21.50
2022-08-20T01:19:30.077Z,21.90
2022-08-20T01:19:44.743Z,21.90
2022-08-20T01:20:15.297Z,21.00
2022-08-20T01:20:45.867Z,23.30
2022-08-20T01:21:16.445Z,20.20
2022-08-20T01:21:49.757Z,21.40
2022-08-20T01:22:17.752Z,21.50
2022-08-20T01:22:48.314Z,21.20
2022-08-20T01:23:18.891Z,23.70
2022-08-20T01:23:49.456Z,19.50
2022-08-20T01:24:19.979Z,19.10
2022-08-20T01:24:50.527Z,21.30
2022-08-20T01:25:21.067Z,19.30
2022-08-20T01:25:51.784Z,21.40
2022-08-20T01:26:22.358Z,21.50
2022-08-20T01:26:52.918Z,21.80
2022-08-20T01:27:23.466Z,19.20
2022-08-20T01:27:55.478Z,20.50
2022-08-20T01:28:25.334Z,20.40
2022-08-20T01:28:55.920Z,19.90
2022-08-20T01:29:26.512Z,21.60
2022-08-20T01:29:57.077Z,21.80
2022-08-20T01:30:27.600Z,22.00
2022-08-20T01:30:58.171Z,20.30
2022-08-20T01:31:28.747Z,21.90
2022-08-20T01:31:59.348Z,21.80
2022-08-20T01:32:29.896Z,20.70
2022-08-20T01:33:00.474Z,20.00
2022-08-20T01:33:31.035Z,19.20
2022-08-20T01:34:01.620Z,22.70
2022-08-20T01:34:32.200Z,17.40
2022-08-20T01:35:02.753Z,18.70
2022-08-20T01:35:33.412Z,19.40
2022-08-20T01:36:03.939Z,18.20
2022-08-20T01:36:34.525Z,21.30
2022-08-20T01:37:05.093Z,22.00
2022-08-20T01:37:35.695Z,20.10
2022-08-20T01:38:06.277Z,19.20
2022-08-20T01:38:36.828Z,20.10
2022-08-20T01:39:07.398Z,19.00
2022-08-20T01:39:37.996Z,20.50
2022-08-20T01:40:09.344Z,18.60
2022-08-20T01:40:39.445Z,18.80
2022-08-20T01:41:09.993Z,20.60
2022-08-20T01:41:40.563Z,22.50
2022-08-20T01:42:11.109Z,18.50
2022-08-20T01:42:52.806Z,22.20
2022-08-20T01:43:12.458Z,20.90
2022-08-20T01:43:43.420Z,22.60
2022-08-20T01:44:16.990Z,19.60
2022-08-20T01:44:45.021Z,21.10
2022-08-20T01:45:15.842Z,21.70
2022-08-20T01:45:46.534Z,20.90
2022-08-20T01:46:17.185Z,17.70
2022-08-20T01:46:48.217Z,20.90
2022-08-20T01:47:19.149Z,20.00
2022-08-20T01:47:49.825Z,19.70
2022-08-20T01:48:20.780Z,20.50
2022-08-20T01:48:51.327Z,20.30
2022-08-20T01:49:23.210Z,17.80
2022-08-20T01:49:52.536Z,20.70
2022-08-20T01:50:23.093Z,19.90
2022-08-20T01:50:53.643Z,21.70
2022-08-20T01:51:24.229Z,19.10
2022-08-20T01:51:54.805Z,20.00
2022-08-20T01:52:25.325Z,19.50
2022-08-20T01:52:55.896Z,23.30
2022-08-20T01:53:26.486Z,20.60
2022-08-20T01:53:57.041Z,21.50
2022-08-20T01:54:27.623Z,18.20
2022-08-20T01:54:58.179Z,19.30
2022-08-20T01:55:28.699Z,17.70
2022-08-20T01:55:59.255Z,19.60
2022-08-20T01:56:29.834Z,20.30
2022-08-20T01:57:00.388Z,18.20
2022-08-20T01:57:30.982Z,18.20
2022-08-20T01:58:01.566Z,19.60
2022-08-20T01:58:32.135Z,17.90
2022-08-20T01:59:02.697Z,17.40
2022-08-20T01:59:33.275Z,20.60
2022-08-20T02:00:03.856Z,19.40
2022-08-20T02:00:34.398Z,19.20
2022-08-20T02:01:04.946Z,19.60
2022-08-20T02:01:46.484Z,20.00
2022-08-20T02:02:06.261Z,20.70
2022-08-20T02:02:36.824Z,20.00
2022-08-20T02:03:07.356Z,20.20
2022-08-20T02:03:41.825Z,20.30
2022-08-20T02:04:08.719Z,20.60
2022-08-20T02:04:39.505Z,22.10
2022-08-20T02:05:10.087Z,20.00
2022-08-20T02:05:40.670Z,23.50
2022-08-20T02:06:11.227Z,19.30
2022-08-20T02:06:41.771Z,19.50
2022-08-20T02:07:12.555Z,20.00
2022-08-20T02:07:43.130Z,19.80
2022-08-20T02:08:13.683Z,22.80
2022-08-20T02:08:44.271Z,17.40
2022-08-20T02:09:16.265Z,19.80
2022-08-20T02:09:45.802Z,22.20
2022-08-20T02:10:16.371Z,21.90
2022-08-20T02:10:46.934Z,19.90
2022-08-20T02:11:17.489Z,21.50
2022-08-20T02:11:48.048Z,18.90
2022-08-20T02:12:18.633Z,20.70
2022-08-20T02:12:49.184Z,21.40
2022-08-20T02:13:19.707Z,20.20
2022-08-20T02:13:50.261Z,22.00
2022-08-20T02:14:20.839Z,20.70
2022-08-20T02:14:51.413Z,20.30
2022-08-20T02:15:34.669Z,19.10
2022-08-20T02:15:52.721Z,22.30
2022-08-20T02:16:23.277Z,21.80
2022-08-20T02:16:54.953Z,20.70
2022-08-20T02:17:24.618Z,23.60
2022-08-20T02:17:55.409Z,20.50
2022-08-20T02:18:26.027Z,19.10
2022-08-20T02:18:56.593Z,22.70
2022-08-20T02:19:27.125Z,21.70
2022-08-20T02:19:57.694Z,22.10
2022-08-20T02:20:28.244Z,23.20
2022-08-20T02:20:58.765Z,21.50
2022-08-20T02:21:29.347Z,18.40
2022-08-20T02:21:59.972Z,20.20
2022-08-20T02:22:30.507Z,21.20
2022-08-20T02:23:01.077Z,19.10
2022-08-20T02:23:31.620Z,23.80
2022-08-20T02:24:02.179Z,19.60
2022-08-20T02:24:32.771Z,20.60
2022-08-20T02:25:03.312Z,19.40
2022-08-20T02:25:33.869Z,20.70
2022-08-20T02:26:04.416Z,18.70
2022-08-20T02:26:34.991Z,22.60
2022-08-20T02:27:05.522Z,23.30
2022-08-20T02:27:36.082Z,20.00
2022-08-20T02:28:06.650Z,22.90
2022-08-20T02:28:37.235Z,21.20
2022-08-20T02:29:07.824Z,21.20
2022-08-20T02:29:38.366Z,21.40
2022-08-20T02:30:08.931Z,19.30
2022-08-20T02:30:39.475Z,21.20
2022-08-20T02:31:10.019Z,21.30
2022-08-20T02:32:23.444Z,20.80
2022-08-20T02:32:24.773Z,22.80
2022-08-20T02:32:42.183Z,20.90
2022-08-20T02:33:12.747Z,20.30
2022-08-20T02:33:43.314Z,19.40
2022-08-20T02:34:21.633Z,20.40
2022-08-20T02:34:44.866Z,17.70
2022-08-20T02:35:15.438Z,18.40
2022-08-20T02:35:46.009Z,20.00
2022-08-20T02:36:16.591Z,18.90
2022-08-20T02:36:47.137Z,19.90
2022-08-20T02:37:17.687Z,22.40
2022-08-20T02:37:48.268Z,19.50
2022-08-20T02:38:18.855Z,20.30
2022-08-20T02:38:49.379Z,21.70
2022-08-20T02:39:19.931Z,22.80
2022-08-20T02:39:50.517Z,20.00
2022-08-20T02:40:27.464Z,21.40
2022-08-20T02:40:51.868Z,19.70
2022-08-20T02:41:22.443Z,21.10
2022-08-20T02:41:53.010Z,20.40
2022-08-20T02:42:23.532Z,22.70
2022-08-20T02:42:54.070Z,19.20
2022-08-20T02:43:24.615Z,23.40
2022-08-20T02:43:55.167Z,19.00
2022-08-20T02:44:25.735Z,20.40
2022-08-20T02:44:56.310Z,17.80
2022-08-20T02:45:26.853Z,21.30
2022-08-20T02:45:57.440Z,17.00
2022-08-20T02:46:27.972Z,21.90
2022-08-20T02:46:58.533Z,23.60
2022-08-20T02:47:29.096Z,20.70
2022-08-20T02:47:59.629Z,19.70
2022-08-20T02:48:30.256Z,21.90
2022-08-20T02:49:00.785Z,22.80
2022-08-20T02:49:31.355Z,21.70
2022-08-20T02:50:01.934Z,19.70
2022-08-20T02:50:32.714Z,20.10
2022-08-20T02:51:03.288Z,20.70
2022-08-20T02:51:33.808Z,20.00
2022-08-20T02:52:04.370Z,19.70
2022-08-20T02:52:34.954Z,21.40
2022-08-20T02:53:05.489Z,20.60
2022-08-20T02:53:36.052Z,20.10
2022-08-20T02:54:06.582Z,24.40
2022-08-20T02:54:37.139Z,20.60
2022-08-20T02:55:07.701Z,19.90
2022-08-20T02:55:38.420Z,21.30
2022-08-20T02:56:08.989Z,21.20
2022-08-20T02:56:39.517Z,18.90
2022-08-20T02:57:10.102Z,20.70
2022-08-20T02:57:40.646Z,22.50
2022-08-20T02:58:11.192Z,19.00
2022-08-20T02:58:41.799Z,23.60
2022-08-20T02:59:12.511Z,18.70
2022-08-20T02:59:43.160Z,20.90
2022-08-20T03:00:13.715Z,19.20
2022-08-20T03:00:44.254Z,19.90
2022-08-20T03:01:14.823Z,20.10
2022-08-20T03:01:45.397Z,21.50
2022-08-20T03:02:15.941Z,17.30
2022-08-20T03:02:46.502Z,18.70
2022-08-20T03:03:17.055Z,19.00
2022-08-20T03:03:47.613Z,21.80
2022-08-20T03:04:18.185Z,19.50
2022-08-20T03:04:48.712Z,19.00
2022-08-20T03:05:19.288Z,20.40
2022-08-20T03:05:49.845Z,19.30
2022-08-20T03:06:20.422Z,19.60
2022-08-20T03:06:50.992Z,21.70
2022-08-20T03:07:21.874Z,19.80
2022-08-20T03:07:52.472Z,20.50
2022-08-20T03:08:23.010Z,19.60
2022-08-20T03:08:53.565Z,18.20
2022-08-20T03:09:24.101Z,20.40
2022-08-20T03:09:54.673Z,21.70
2022-08-20T03:10:25.223Z,18.30
2022-08-20T03:10:55.803Z,23.00
2022-08-20T03:11:26.375Z,20.60
2022-08-20T03:11:56.959Z,18.70
2022-08-20T03:12:27.514Z,17.50
2022-08-20T03:12:58.062Z,22.90
2022-08-20T03:13:28.599Z,21.40
2022-08-20T03:13:59.166Z,18.30
2022-08-20T03:14:29.692Z,18.20
2022-08-20T03:15:00.241Z,19.80
2022-08-20T03:15:30.785Z,20.80
2022-08-20T03:16:01.374Z,18.30
2022-08-20T03:16:31.931Z,20.60
2022-08-20T03:17:02.464Z,19.00
2022-08-20T03:17:33.024Z,18.20
2022-08-20T03:18:03.594Z,18.50
2022-08-20T03:18:34.143Z,22.40
2022-08-20T03:19:04.704Z,20.10
2022-08-20T03:19:35.295Z,18.10
2022-08-20T03:20:05.862Z,21.40
2022-08-20T03:20:36.406Z,17.00
2022-08-20T03:21:07.287Z,16.60
2022-08-20T03:21:37.846Z,20.40
2022-08-20T03:22:08.416Z,20.20
2022-08-20T03:22:38.987Z,19.80
2022-08-20T03:23:09.511Z,16.80
2022-08-20T03:23:40.422Z,20.20
2022-08-20T03:24:11.069Z,18.50
2022-08-20T03:24:41.669Z,24.30
2022-08-20T03:25:12.225Z,20.00
2022-08-20T03:25:42.792Z,19.70
2022-08-20T03:26:13.349Z,18.30
2022-08-20T03:26:43.887Z,21.70
2022-08-20T03:27:14.425Z,19.20
2022-08-20T03:27:44.959Z,18.00
2022-08-20T03:28:15.793Z,21.80
2022-08-20T03:28:46.356Z,22.30
2022-08-20T03:29:17.261Z,19.10
2022-08-20T03:29:47.826Z,18.90
2022-08-20T03:30:18.415Z,21.10
2022-08-20T03:30:48.970Z,18.50
2022-08-20T03:31:19.549Z,19.40
2022-08-20T03:31:50.112Z,19.50
2022-08-20T03:32:20.676Z,18.90
2022-08-20T03:32:51.264Z,21.70
2022-08-20T03:33:21.812Z,18.60
2022-08-20T03:33:53.333Z,18.70
2022-08-20T03:34:23.256Z,19.60
2022-08-20T03:34:53.824Z,19.70
2022-08-20T03:35:24.423Z,18.30
2022-08-20T03:35:55.043Z,17.80
2022-08-20T03:36:28.710Z,20.60
2022-08-20T03:36:56.451Z,17.70
2022-08-20T03:37:27.022Z,20.00
2022-08-20T03:37:57.783Z,19.50
2022-08-20T03:38:33.234Z,18.00
2022-08-20T03:38:59.182Z,20.40
2022-08-20T03:39:29.708Z,18.10
2022-08-20T03:40:00.437Z,21.60
2022-08-20T03:40:31.085Z,19.30
2022-08-20T03:41:01.624Z,19.00
2022-08-20T03:41:32.191Z,19.70
2022-08-20T03:42:02.732Z,18.90
2022-08-20T03:42:33.283Z,18.40
2022-08-20T03:43:03.809Z,16.80
2022-08-20T03:43:34.357Z,20.30
2022-08-20T03:44:04.885Z,18.20
2022-08-20T03:44:35.426Z,16.80
2022-08-20T03:45:06.025Z,17.30
2022-08-20T03:45:36.628Z,18.10
2022-08-20T03:46:07.183Z,19.20
2022-08-20T03:46:37.973Z,18.70
2022-08-20T03:47:08.538Z,17.20
2022-08-20T03:47:39.101Z,17.80
2022-08-20T03:48:09.663Z,19.00
2022-08-20T03:48:40.190Z,17.70
2022-08-20T03:49:10.750Z,18.70
2022-08-20T03:49:41.315Z,19.20
2022-08-20T03:50:14.769Z,17.70
2022-08-20T03:50:42.647Z,17.40
2022-08-20T03:51:13.216Z,18.70
2022-08-20T03:51:57.466Z,16.50
2022-08-20T03:52:14.553Z,17.90
2022-08-20T03:52:45.141Z,21.80
2022-08-20T03:53:15.678Z,16.10
2022-08-20T03:53:46.229Z,17.80
2022-08-20T03:54:16.805Z,17.80
2022-08-20T03:54:47.358Z,17.70
2022-08-20T03:55:17.926Z,18.80
2022-08-20T03:55:53.844Z,18.90
2022-08-20T03:56:19.268Z,17.30
2022-08-20T03:56:49.794Z,16.50
2022-08-20T03:57:20.379Z,19.30
2022-08-20T03:57:50.936Z,17.70
2022-08-20T03:58:21.464Z,17.30
2022-08-20T03:58:52.233Z,17.10
2022-08-20T03:59:22.827Z,19.50
2022-08-20T03:59:58.162Z,19.30
2022-08-20T04:00:24.096Z,16.30
2022-08-20T04:00:55.141Z,19.10
2022-08-20T04:01:45.285Z,21.80
2022-08-20T04:01:56.450Z,21.30
2022-08-20T04:02:26.944Z,16.60
2022-08-20T04:02:57.949Z,19.10
2022-08-20T04:03:28.936Z,18.00
2022-08-20T04:03:59.997Z,16.90
2022-08-20T04:04:30.583Z,17.50
2022-08-20T04:05:01.111Z,20.50
2022-08-20T04:05:32.117Z,19.10
2022-08-20T04:06:03.147Z,16.30
2022-08-20T04:06:34.160Z,16.50
2022-08-20T04:07:05.160Z,16.60
2022-08-20T04:07:36.178Z,19.80
2022-08-20T04:08:07.216Z,17.80
2022-08-20T04:08:37.733Z,15.60
2022-08-20T04:09:09.748Z,17.90
2022-08-20T04:09:39.350Z,16.20
2022-08-20T04:10:10.407Z,19.30
2022-08-20T04:10:40.910Z,17.90
2022-08-20T04:11:11.926Z,19.50
2022-08-20T04:11:42.446Z,18.40
2022-08-20T04:12:13.479Z,16.60
2022-08-20T04:12:53.050Z,18.10
2022-08-20T04:13:15.248Z,17.70
2022-08-20T04:13:46.218Z,17.80
2022-08-20T04:14:18.601Z,20.00
2022-08-20T04:14:47.946Z,17.00
2022-08-20T04:15:18.964Z,17.90
2022-08-20T04:15:49.976Z,19.10
2022-08-20T04:16:20.793Z,18.50
2022-08-20T04:16:51.830Z,16.40
2022-08-20T04:17:22.854Z,17.50
2022-08-20T04:17:53.888Z,18.80
2022-08-20T04:18:24.455Z,16.10
2022-08-20T04:18:58.594Z,17.40
2022-08-20T04:19:25.695Z,18.70
2022-08-20T04:19:56.217Z,17.50
2022-08-20T04:20:27.210Z,15.80
2022-08-20T04:20:58.208Z,16.40
2022-08-20T04:21:30.946Z,19.10
2022-08-20T04:22:00.062Z,19.30
2022-08-20T04:22:30.592Z,20.10
2022-08-20T04:23:01.610Z,17.20
2022-08-20T04:23:32.670Z,16.50
2022-08-20T04:24:03.157Z,16.00
2022-08-20T04:24:34.185Z,17.70
2022-08-20T04:25:05.212Z,16.30
2022-08-20T04:25:36.333Z,17.30
2022-08-20T04:26:06.944Z,16.90
2022-08-20T04:26:37.418Z,16.70
2022-08-20T04:27:07.936Z,19.10
2022-08-20T04:27:38.976Z,17.70
2022-08-20T04:28:09.979Z,16.50
2022-08-20T04:28:41.001Z,15.00
2022-08-20T04:29:12.011Z,15.80
2022-08-20T04:29:43.085Z,16.50
2022-08-20T04:30:13.598Z,17.90
2022-08-20T04:30:51.714Z,18.40
2022-08-20T04:31:15.365Z,17.00
2022-08-20T04:31:46.369Z,16.40
2022-08-20T04:32:17.378Z,15.60
2022-08-20T04:32:47.928Z,16.70
2022-08-20T04:33:19.211Z,17.70
2022-08-20T04:33:49.682Z,15.60
2022-08-20T04:34:20.226Z,15.70
2022-08-20T04:34:50.751Z,14.90
2022-08-20T04:35:21.276Z,16.80
2022-08-20T04:35:52.309Z,15.90
2022-08-20T04:36:23.302Z,16.00
2022-08-20T04:36:54.347Z,18.70
2022-08-20T04:37:24.865Z,18.30
2022-08-20T04:37:56.115Z,15.60
2022-08-20T04:38:26.681Z,15.60
2022-08-20T04:38:57.411Z,17.90
2022-08-20T04:39:28.410Z,14.50
2022-08-20T04:39:59.470Z,16.40
2022-08-20T04:40:29.978Z,15.00
2022-08-20T04:41:00.507Z,15.40
2022-08-20T04:41:31.530Z,16.10
2022-08-20T04:42:02.550Z,14.80
2022-08-20T04:42:33.063Z,16.50
2022-08-20T04:43:03.666Z,16.80
2022-08-20T04:43:34.701Z,18.80
2022-08-20T04:44:05.716Z,17.50
2022-08-20T04:44:36.261Z,17.60
2022-08-20T04:45:07.274Z,15.90
2022-08-20T04:45:38.298Z,17.70
2022-08-20T04:46:08.807Z,15.30
2022-08-20T04:46:39.818Z,16.90
2022-08-20T04:47:10.847Z,16.70
2022-08-20T04:47:41.651Z,18.30
2022-08-20T04:48:15.125Z,16.30
2022-08-20T04:48:48.750Z,16.10
2022-08-20T04:49:14.026Z,17.60
2022-08-20T04:49:44.551Z,14.80
2022-08-20T04:50:15.575Z,15.80
2022-08-20T04:50:46.099Z,18.90
2022-08-20T04:51:16.617Z,16.60
2022-08-20T04:51:47.652Z,15.10
2022-08-20T04:52:18.683Z,14.70
2022-08-20T04:52:49.204Z,16.30
2022-08-20T04:53:25.257Z,14.60
2022-08-20T04:53:53.259Z,16.70
2022-08-20T04:54:21.722Z,15.50
2022-08-20T04:54:52.239Z,17.50
2022-08-20T04:55:23.233Z,16.00
2022-08-20T04:55:54.268Z,15.10
2022-08-20T04:56:25.295Z,14.80
2022-08-20T04:56:55.814Z,16.20
2022-08-20T04:57:26.809Z,17.50
2022-08-20T04:57:57.793Z,14.80
2022-08-20T04:58:28.355Z,17.40
2022-08-20T04:58:58.880Z,13.40
2022-08-20T04:59:29.916Z,15.90
2022-08-20T05:00:00.937Z,15.20
2022-08-20T05:00:32.002Z,17.10
2022-08-20T05:01:02.570Z,17.00
2022-08-20T05:01:33.264Z,17.70
2022-08-20T05:02:03.801Z,15.80
2022-08-20T05:02:34.796Z,16.70
2022-08-20T05:03:05.794Z,14.10
2022-08-20T05:03:36.787Z,17.70
2022-08-20T05:04:07.831Z,17.60
2022-08-20T05:04:38.350Z,17.00
2022-08-20T05:05:09.382Z,16.90
2022-08-20T05:05:40.398Z,17.10
2022-08-20T05:06:10.934Z,16.60
2022-08-20T05:06:41.435Z,16.40
2022-08-20T05:07:12.453Z,15.00
2022-08-20T05:07:42.983Z,14.70
2022-08-20T05:08:19.593Z,13.70
2022-08-20T05:08:44.732Z,15.50
2022-08-20T05:09:15.743Z,15.80
2022-08-20T05:09:46.790Z,16.40
2022-08-20T05:10:17.814Z,12.90
2022-08-20T05:10:48.835Z,16.30
2022-08-20T05:11:35.306Z,15.30
2022-08-20T05:11:50.074Z,17.30
2022-08-20T05:12:21.085Z,17.20
2022-08-20T05:12:53.778Z,16.60
2022-08-20T05:13:27.141Z,18.00
2022-08-20T05:13:53.796Z,15.60
2022-08-20T05:14:24.331Z,14.40
2022-08-20T05:14:54.841Z,15.30
2022-08-20T05:15:25.357Z,15.10
2022-08-20T05:15:56.385Z,12.70
2022-08-20T05:16:27.392Z,14.00
2022-08-20T05:16:58.436Z,16.90
2022-08-20T05:17:28.955Z,15.40
2022-08-20T05:17:59.999Z,13.00
2022-08-20T05:18:31.057Z,14.60
2022-08-20T05:19:01.546Z,15.20
2022-08-20T05:19:37.019Z,14.80
2022-08-20T05:20:03.281Z,15.40
2022-08-20T05:20:33.845Z,14.40
2022-08-20T05:21:04.358Z,13.20
2022-08-20T05:21:35.390Z,13.00
2022-08-20T05:22:06.402Z,14.00
2022-08-20T05:22:36.907Z,14.30
2022-08-20T05:23:07.900Z,14.00
2022-08-20T05:23:38.918Z,13.80
2022-08-20T05:24:09.941Z,14.40
2022-08-20T05:24:40.457Z,13.40
2022-08-20T05:25:11.480Z,14.50
2022-08-20T05:25:41.993Z,14.30
2022-08-20T05:26:12.995Z,13.40
2022-08-20T05:26:44.011Z,14.60
2022-08-20T05:27:24.559Z,13.00
2022-08-20T05:27:47.831Z,15.30
2022-08-20T05:28:16.314Z,14.90
2022-08-20T05:28:54.104Z,13.10
2022-08-20T05:29:18.065Z,16.20
2022-08-20T05:29:48.591Z,15.30
2022-08-20T05:30:19.621Z,13.70
2022-08-20T05:30:50.142Z,13.80
2022-08-20T05:31:21.196Z,14.80
2022-08-20T05:31:52.198Z,12.90
2022-08-20T05:32:23.221Z,15.40
2022-08-20T05:32:54.263Z,15.00
2022-08-20T05:33:24.784Z,13.70
2022-08-20T05:33:55.289Z,13.90
2022-08-20T05:34:26.319Z,12.20
2022-08-20T05:34:57.376Z,14.10
2022-08-20T05:35:28.383Z,13.70
2022-08-20T05:35:59.414Z,14.60
2022-08-20T05:36:30.430Z,14.20
2022-08-20T05:37:00.950Z,12.60
2022-08-20T05:37:31.468Z,14.20
2022-08-20T05:38:02.340Z,12.10
2022-08-20T05:38:33.344Z,15.00
2022-08-20T05:39:03.864Z,14.20
2022-08-20T05:39:37.486Z,13.10
2022-08-20T05:40:05.622Z,14.40
2022-08-20T05:40:36.124Z,13.80
2022-08-20T05:41:07.130Z,13.70
2022-08-20T05:41:38.173Z,13.20
2022-08-20T05:42:08.714Z,13.90
2022-08-20T05:42:39.220Z,13.80
2022-08-20T05:43:10.247Z,12.10
2022-08-20T05:43:41.256Z,14.50
2022-08-20T05:44:11.787Z,13.80
2022-08-20T05:44:42.789Z,13.40
2022-08-20T05:45:13.308Z,12.10
2022-08-20T05:45:43.821Z,13.80
2022-08-20T05:46:14.829Z,12.20
2022-08-20T05:46:45.354Z,14.00
2022-08-20T05:47:16.352Z,11.70
2022-08-20T05:47:47.347Z,14.40
2022-08-20T05:48:18.094Z,13.00
2022-08-20T05:48:49.094Z,11.40
2022-08-20T05:49:20.169Z,13.30
2022-08-20T05:49:50.670Z,14.90
2022-08-20T05:50:23.518Z,13.80
2022-08-20T05:50:52.546Z,12.30
2022-08-20T05:51:23.068Z,13.60
2022-08-20T05:51:54.100Z,11.80
2022-08-20T05:52:25.126Z,13.80
2022-08-20T05:52:56.142Z,13.90
2022-08-20T05:53:27.145Z,13.20
2022-08-20T05:53:59.599Z,13.00
2022-08-20T05:54:28.197Z,13.80
2022-08-20T05:54:59.223Z,12.80
2022-08-20T05:55:30.251Z,13.60
2022-08-20T05:56:01.276Z,14.50
2022-08-20T05:56:32.296Z,13.20
2022-08-20T05:57:03.347Z,14.10
2022-08-20T05:57:34.364Z,14.00
2022-08-20T05:58:04.902Z,11.40
2022-08-20T05:58:35.426Z,12.80
2022-08-20T05:59:06.450Z,14.20
2022-08-20T05:59:36.966Z,14.60
2022-08-20T06:00:07.971Z,13.50
2022-08-20T06:00:38.494Z,14.10
2022-08-20T06:01:09.568Z,13.90
2022-08-20T06:01:40.173Z,13.60
2022-08-20T06:02:10.688Z,11.40
2022-08-20T06:02:41.685Z,13.20
2022-08-20T06:03:12.678Z,14.80
2022-08-20T06:03:43.702Z,13.40
2022-08-20T06:04:14.757Z,11.80
2022-08-20T06:04:45.251Z,12.00
2022-08-20T06:05:16.266Z,13.10
2022-08-20T06:05:46.773Z,13.00
2022-08-20T06:06:20.694Z,14.90
2022-08-20T06:06:48.488Z,13.20
2022-08-20T06:07:19.495Z,14.10
2022-08-20T06:07:50.023Z,12.20
2022-08-20T06:08:20.560Z,13.40
2022-08-20T06:08:51.567Z,14.00
2022-08-20T06:09:30.607Z,13.00
2022-08-20T06:09:53.319Z,12.70
2022-08-20T06:10:24.379Z,11.90
2022-08-20T06:10:54.893Z,13.00
2022-08-20T06:11:25.419Z,13.30
2022-08-20T06:11:59.157Z,11.80
2022-08-20T06:12:27.316Z,14.50
2022-08-20T06:12:57.842Z,14.80
2022-08-20T06:13:28.876Z,15.10
2022-08-20T06:13:59.900Z,12.30
2022-08-20T06:14:30.901Z,13.90
2022-08-20T06:15:01.420Z,11.80
2022-08-20T06:15:32.435Z,13.40
2022-08-20T06:16:03.185Z,11.60
2022-08-20T06:16:34.236Z,13.20
2022-08-20T06:17:05.320Z,14.00
2022-08-20T06:17:39.457Z,14.10
2022-08-20T06:18:13.005Z,11.50
2022-08-20T06:18:37.263Z,11.80
2022-08-20T06:19:10.309Z,15.20
2022-08-20T06:19:38.804Z,14.10
2022-08-20T06:20:09.828Z,13.10
2022-08-20T06:20:40.519Z,16.40
2022-08-20T06:21:11.022Z,13.60
2022-08-20T06:21:41.612Z,14.50
2022-08-20T06:22:20.635Z,13.40
2022-08-20T06:22:42.882Z,15.60
2022-08-20T06:23:13.457Z,17.40
2022-08-20T06:23:57.509Z,11.90
2022-08-20T06:24:15.218Z,13.90
2022-08-20T06:24:46.226Z,12.00
2022-08-20T06:25:16.748Z,15.40
2022-08-20T06:25:47.274Z,14.10
2022-08-20T06:26:29.913Z,12.40
2022-08-20T06:26:49.017Z,13.50
2022-08-20T06:27:19.549Z,14.20
2022-08-20T06:27:50.131Z,12.40
2022-08-20T06:28:20.689Z,13.20
2022-08-20T06:28:54.167Z,11.30
2022-08-20T06:29:22.658Z,16.30
2022-08-20T06:29:53.709Z,14.20
2022-08-20T06:30:24.215Z,13.70
2022-08-20T06:30:55.250Z,14.50
2022-08-20T06:31:26.283Z,13.90
2022-08-20T06:31:57.312Z,12.40
2022-08-20T06:32:32.679Z,13.80
2022-08-20T06:32:59.229Z,13.90
2022-08-20T06:33:29.742Z,12.90
2022-08-20T06:34:00.774Z,11.30
2022-08-20T06:34:31.294Z,13.80
2022-08-20T06:35:01.817Z,11.30
2022-08-20T06:35:32.842Z,12.40